sensor_id;sensor_type;location;lat;lon;timestamp;P1;durP1;ratioP1;P2;durP2;ratioP2
20914;SDS011;10617;52.032;5.298;2024-03-02T00:02:03;3.20;;;1.38;;
20914;SDS011;10617;52.032;5.298;2024-03-02T00:06:07;4.03;;;1.60;;
20914;SDS011;10617;52.032;5.298;2024-03-02T00:10:10;4.70;;;1.70;;
20914;SDS011;10617;52.032;5.298;2024-03-02T00:14:13;3.92;;;1.50;;
20914;SDS011;10617;52.032;5.298;2024-03-02T00:18:19;4.55;;;1.50;;
20914;SDS011;10617;52.032;5.298;2024-03-02T00:22:23;4.50;;;1.30;;
20914;SDS011;10617;52.032;5.298;2024-03-02T00:26:24;4.85;;;1.60;;
20914;SDS011;10617;52.032;5.298;2024-03-02T00:34:47;3.00;;;1.30;;
20914;SDS011;10617;52.032;5.298;2024-03-02T00:38:50;2.10;;;1.00;;
20914;SDS011;10617;52.032;5.298;2024-03-02T00:42:52;0.95;;;0.65;;
20914;SDS011;10617;52.032;5.298;2024-03-02T00:46:54;1.38;;;0.60;;
20914;SDS011;10617;52.032;5.298;2024-03-02T00:50:56;1.38;;;0.63;;
20914;SDS011;10617;52.032;5.298;2024-03-02T00:59:38;2.00;;;0.70;;
20914;SDS011;10617;52.032;5.298;2024-03-02T01:03:39;0.70;;;0.50;;
20914;SDS011;10617;52.032;5.298;2024-03-02T01:07:42;0.85;;;0.60;;
20914;SDS011;10617;52.032;5.298;2024-03-02T01:11:44;0.80;;;0.60;;
20914;SDS011;10617;52.032;5.298;2024-03-02T01:15:46;0.98;;;0.57;;
20914;SDS011;10617;52.032;5.298;2024-03-02T01:19:48;1.92;;;0.80;;
20914;SDS011;10617;52.032;5.298;2024-03-02T01:23:50;1.23;;;0.65;;
20914;SDS011;10617;52.032;5.298;2024-03-02T01:27:51;0.75;;;0.52;;
20914;SDS011;10617;52.032;5.298;2024-03-02T01:31:53;1.48;;;0.77;;
20914;SDS011;10617;52.032;5.298;2024-03-02T01:35:55;1.92;;;0.80;;
20914;SDS011;10617;52.032;5.298;2024-03-02T01:39:57;2.28;;;0.70;;
20914;SDS011;10617;52.032;5.298;2024-03-02T01:43:59;1.55;;;0.80;;
20914;SDS011;10617;52.032;5.298;2024-03-02T01:48:01;1.65;;;0.70;;
20914;SDS011;10617;52.032;5.298;2024-03-02T01:52:03;0.77;;;0.70;;
20914;SDS011;10617;52.032;5.298;2024-03-02T01:56:05;2.50;;;0.80;;
20914;SDS011;10617;52.032;5.298;2024-03-02T02:00:07;1.02;;;0.60;;
20914;SDS011;10617;52.032;5.298;2024-03-02T02:04:11;2.10;;;0.63;;
20914;SDS011;10617;52.032;5.298;2024-03-02T02:08:12;1.75;;;0.68;;
20914;SDS011;10617;52.032;5.298;2024-03-02T02:12:14;1.13;;;0.68;;
20914;SDS011;10617;52.032;5.298;2024-03-02T02:16:17;1.55;;;0.68;;
20914;SDS011;10617;52.032;5.298;2024-03-02T02:20:18;2.63;;;0.98;;
20914;SDS011;10617;52.032;5.298;2024-03-02T02:24:20;0.90;;;0.50;;
20914;SDS011;10617;52.032;5.298;2024-03-02T02:28:22;0.68;;;0.50;;
20914;SDS011;10617;52.032;5.298;2024-03-02T02:32:24;0.82;;;0.60;;
20914;SDS011;10617;52.032;5.298;2024-03-02T02:36:26;1.35;;;0.60;;
20914;SDS011;10617;52.032;5.298;2024-03-02T02:40:27;1.33;;;0.80;;
20914;SDS011;10617;52.032;5.298;2024-03-02T02:44:31;1.63;;;0.75;;
20914;SDS011;10617;52.032;5.298;2024-03-02T02:48:33;1.05;;;0.60;;
20914;SDS011;10617;52.032;5.298;2024-03-02T02:52:35;1.10;;;0.60;;
20914;SDS011;10617;52.032;5.298;2024-03-02T02:56:40;1.50;;;0.50;;
20914;SDS011;10617;52.032;5.298;2024-03-02T03:00:42;2.65;;;0.70;;
20914;SDS011;10617;52.032;5.298;2024-03-02T03:04:44;0.93;;;0.52;;
20914;SDS011;10617;52.032;5.298;2024-03-02T03:08:46;2.30;;;0.70;;
20914;SDS011;10617;52.032;5.298;2024-03-02T03:12:47;0.85;;;0.50;;
20914;SDS011;10617;52.032;5.298;2024-03-02T03:16:50;0.93;;;0.57;;
20914;SDS011;10617;52.032;5.298;2024-03-02T03:20:52;1.15;;;0.50;;
20914;SDS011;10617;52.032;5.298;2024-03-02T03:24:53;1.00;;;0.60;;
20914;SDS011;10617;52.032;5.298;2024-03-02T03:28:55;0.60;;;0.55;;
20914;SDS011;10617;52.032;5.298;2024-03-02T03:32:57;1.15;;;0.60;;
20914;SDS011;10617;52.032;5.298;2024-03-02T03:36:59;1.17;;;0.70;;
20914;SDS011;10617;52.032;5.298;2024-03-02T03:41:01;1.63;;;0.60;;
20914;SDS011;10617;52.032;5.298;2024-03-02T03:45:03;1.45;;;0.70;;
20914;SDS011;10617;52.032;5.298;2024-03-02T03:49:05;1.00;;;0.60;;
20914;SDS011;10617;52.032;5.298;2024-03-02T03:53:07;2.33;;;0.70;;
20914;SDS011;10617;52.032;5.298;2024-03-02T03:57:09;2.28;;;0.70;;
20914;SDS011;10617;52.032;5.298;2024-03-02T04:01:11;1.40;;;0.57;;
20914;SDS011;10617;52.032;5.298;2024-03-02T04:05:13;0.80;;;0.52;;
20914;SDS011;10617;52.032;5.298;2024-03-02T04:09:14;1.77;;;0.68;;
20914;SDS011;10617;52.032;5.298;2024-03-02T04:13:16;2.38;;;0.60;;
20914;SDS011;10617;52.032;5.298;2024-03-02T04:17:18;0.88;;;0.60;;
20914;SDS011;10617;52.032;5.298;2024-03-02T04:21:20;1.75;;;0.80;;
20914;SDS011;10617;52.032;5.298;2024-03-02T04:25:21;2.17;;;0.88;;
20914;SDS011;10617;52.032;5.298;2024-03-02T04:29:23;1.10;;;0.70;;
20914;SDS011;10617;52.032;5.298;2024-03-02T04:33:25;1.13;;;0.63;;
20914;SDS011;10617;52.032;5.298;2024-03-02T04:37:27;1.67;;;0.70;;
20914;SDS011;10617;52.032;5.298;2024-03-02T04:41:29;1.27;;;0.60;;
20914;SDS011;10617;52.032;5.298;2024-03-02T04:45:31;1.35;;;0.70;;
20914;SDS011;10617;52.032;5.298;2024-03-02T04:54:55;0.88;;;0.50;;
20914;SDS011;10617;52.032;5.298;2024-03-02T04:59:25;2.33;;;0.60;;
20914;SDS011;10617;52.032;5.298;2024-03-02T05:03:27;2.25;;;0.60;;
20914;SDS011;10617;52.032;5.298;2024-03-02T05:07:29;1.00;;;0.57;;
20914;SDS011;10617;52.032;5.298;2024-03-02T05:11:31;2.03;;;0.80;;
20914;SDS011;10617;52.032;5.298;2024-03-02T05:19:41;0.93;;;0.50;;
20914;SDS011;10617;52.032;5.298;2024-03-02T05:23:43;1.70;;;0.80;;
20914;SDS011;10617;52.032;5.298;2024-03-02T05:27:45;2.20;;;0.65;;
20914;SDS011;10617;52.032;5.298;2024-03-02T05:31:48;1.52;;;0.60;;
20914;SDS011;10617;52.032;5.298;2024-03-02T05:35:50;2.72;;;0.70;;
20914;SDS011;10617;52.032;5.298;2024-03-02T05:39:52;1.90;;;0.80;;
20914;SDS011;10617;52.032;5.298;2024-03-02T05:43:54;1.80;;;0.60;;
20914;SDS011;10617;52.032;5.298;2024-03-02T05:47:56;2.22;;;0.55;;
20914;SDS011;10617;52.032;5.298;2024-03-02T05:51:58;1.42;;;0.50;;
20914;SDS011;10617;52.032;5.298;2024-03-02T05:56:00;0.93;;;0.50;;
20914;SDS011;10617;52.032;5.298;2024-03-02T06:00:06;1.02;;;0.65;;
20914;SDS011;10617;52.032;5.298;2024-03-02T06:04:10;1.50;;;0.70;;
20914;SDS011;10617;52.032;5.298;2024-03-02T06:08:15;1.17;;;0.60;;
20914;SDS011;10617;52.032;5.298;2024-03-02T06:12:16;2.65;;;0.73;;
20914;SDS011;10617;52.032;5.298;2024-03-02T06:16:18;2.47;;;0.60;;
20914;SDS011;10617;52.032;5.298;2024-03-02T06:20:20;1.58;;;0.80;;
20914;SDS011;10617;52.032;5.298;2024-03-02T06:28:58;2.42;;;0.73;;
20914;SDS011;10617;52.032;5.298;2024-03-02T06:33:00;1.38;;;0.60;;
20914;SDS011;10617;52.032;5.298;2024-03-02T06:37:02;0.88;;;0.57;;
20914;SDS011;10617;52.032;5.298;2024-03-02T06:41:04;2.13;;;0.60;;
20914;SDS011;10617;52.032;5.298;2024-03-02T06:45:06;1.67;;;0.70;;
20914;SDS011;10617;52.032;5.298;2024-03-02T06:49:08;2.22;;;0.60;;
20914;SDS011;10617;52.032;5.298;2024-03-02T06:53:11;2.50;;;0.82;;
20914;SDS011;10617;52.032;5.298;2024-03-02T06:57:13;2.05;;;0.80;;
20914;SDS011;10617;52.032;5.298;2024-03-02T07:01:15;2.30;;;0.68;;
20914;SDS011;10617;52.032;5.298;2024-03-02T07:05:17;0.95;;;0.50;;
20914;SDS011;10617;52.032;5.298;2024-03-02T07:09:19;2.40;;;0.60;;
20914;SDS011;10617;52.032;5.298;2024-03-02T07:13:23;0.77;;;0.60;;
20914;SDS011;10617;52.032;5.298;2024-03-02T07:17:25;2.20;;;0.85;;
20914;SDS011;10617;52.032;5.298;2024-03-02T07:21:27;1.88;;;0.65;;
20914;SDS011;10617;52.032;5.298;2024-03-02T07:25:29;2.42;;;0.70;;
20914;SDS011;10617;52.032;5.298;2024-03-02T07:29:34;2.45;;;0.65;;
20914;SDS011;10617;52.032;5.298;2024-03-02T07:38:03;3.15;;;0.90;;
20914;SDS011;10617;52.032;5.298;2024-03-02T07:42:05;1.90;;;0.80;;
20914;SDS011;10617;52.032;5.298;2024-03-02T07:46:07;2.97;;;0.90;;
20914;SDS011;10617;52.032;5.298;2024-03-02T07:50:09;1.33;;;0.73;;
20914;SDS011;10617;52.032;5.298;2024-03-02T07:54:11;1.95;;;0.55;;
20914;SDS011;10617;52.032;5.298;2024-03-02T07:58:13;3.00;;;0.90;;
20914;SDS011;10617;52.032;5.298;2024-03-02T08:02:15;2.40;;;0.70;;
20914;SDS011;10617;52.032;5.298;2024-03-02T08:22:24;1.73;;;0.80;;
20914;SDS011;10617;52.032;5.298;2024-03-02T08:26:28;1.20;;;0.60;;
20914;SDS011;10617;52.032;5.298;2024-03-02T08:30:32;2.58;;;0.75;;
20914;SDS011;10617;52.032;5.298;2024-03-02T08:34:34;1.77;;;0.60;;
20914;SDS011;10617;52.032;5.298;2024-03-02T08:38:48;1.90;;;0.73;;
20914;SDS011;10617;52.032;5.298;2024-03-02T08:42:51;1.80;;;0.70;;
20914;SDS011;10617;52.032;5.298;2024-03-02T08:46:53;2.17;;;0.70;;
20914;SDS011;10617;52.032;5.298;2024-03-02T08:50:55;4.38;;;0.88;;
20914;SDS011;10617;52.032;5.298;2024-03-02T08:54:56;2.97;;;0.90;;
20914;SDS011;10617;52.032;5.298;2024-03-02T08:58:59;1.98;;;0.70;;
20914;SDS011;10617;52.032;5.298;2024-03-02T09:03:01;3.20;;;0.80;;
20914;SDS011;10617;52.032;5.298;2024-03-02T09:07:02;0.98;;;0.63;;
20914;SDS011;10617;52.032;5.298;2024-03-02T09:11:05;2.45;;;0.77;;
20914;SDS011;10617;52.032;5.298;2024-03-02T09:15:07;0.98;;;0.60;;
20914;SDS011;10617;52.032;5.298;2024-03-02T09:19:09;3.55;;;0.88;;
20914;SDS011;10617;52.032;5.298;2024-03-02T09:23:11;2.42;;;0.85;;
20914;SDS011;10617;52.032;5.298;2024-03-02T09:27:13;3.58;;;0.88;;
20914;SDS011;10617;52.032;5.298;2024-03-02T09:31:15;3.33;;;0.90;;
20914;SDS011;10617;52.032;5.298;2024-03-02T09:35:17;3.13;;;0.82;;
20914;SDS011;10617;52.032;5.298;2024-03-02T09:39:19;2.38;;;0.70;;
20914;SDS011;10617;52.032;5.298;2024-03-02T09:43:21;4.57;;;1.10;;
20914;SDS011;10617;52.032;5.298;2024-03-02T09:47:24;6.32;;;1.13;;
20914;SDS011;10617;52.032;5.298;2024-03-02T09:51:26;3.17;;;0.90;;
20914;SDS011;10617;52.032;5.298;2024-03-02T09:55:28;2.10;;;0.80;;
20914;SDS011;10617;52.032;5.298;2024-03-02T09:59:30;3.38;;;0.90;;
20914;SDS011;10617;52.032;5.298;2024-03-02T10:03:33;3.47;;;0.90;;
20914;SDS011;10617;52.032;5.298;2024-03-02T10:07:35;3.58;;;1.25;;
20914;SDS011;10617;52.032;5.298;2024-03-02T10:11:37;4.75;;;0.90;;
20914;SDS011;10617;52.032;5.298;2024-03-02T10:15:40;3.55;;;0.90;;
20914;SDS011;10617;52.032;5.298;2024-03-02T10:19:43;3.20;;;0.60;;
20914;SDS011;10617;52.032;5.298;2024-03-02T10:23:45;2.53;;;0.80;;
20914;SDS011;10617;52.032;5.298;2024-03-02T10:27:47;3.97;;;1.10;;
20914;SDS011;10617;52.032;5.298;2024-03-02T10:31:51;3.53;;;0.82;;
20914;SDS011;10617;52.032;5.298;2024-03-02T10:35:53;4.82;;;0.93;;
20914;SDS011;10617;52.032;5.298;2024-03-02T10:39:55;3.80;;;1.10;;
20914;SDS011;10617;52.032;5.298;2024-03-02T10:43:57;5.32;;;0.93;;
20914;SDS011;10617;52.032;5.298;2024-03-02T10:48:01;2.50;;;0.80;;
20914;SDS011;10617;52.032;5.298;2024-03-02T10:52:04;3.58;;;0.80;;
20914;SDS011;10617;52.032;5.298;2024-03-02T10:56:07;5.10;;;1.00;;
20914;SDS011;10617;52.032;5.298;2024-03-02T11:00:11;4.43;;;0.80;;
20914;SDS011;10617;52.032;5.298;2024-03-02T11:09:45;2.70;;;0.80;;
20914;SDS011;10617;52.032;5.298;2024-03-02T11:14:01;1.75;;;0.70;;
20914;SDS011;10617;52.032;5.298;2024-03-02T11:18:09;2.90;;;0.70;;
20914;SDS011;10617;52.032;5.298;2024-03-02T11:31:59;1.70;;;0.80;;
20914;SDS011;10617;52.032;5.298;2024-03-02T11:36:01;2.72;;;0.90;;
20914;SDS011;10617;52.032;5.298;2024-03-02T11:44:37;2.95;;;0.93;;
20914;SDS011;10617;52.032;5.298;2024-03-02T11:48:39;2.15;;;0.75;;
20914;SDS011;10617;52.032;5.298;2024-03-02T11:58:04;4.45;;;0.85;;
20914;SDS011;10617;52.032;5.298;2024-03-02T12:02:06;2.72;;;0.90;;
20914;SDS011;10617;52.032;5.298;2024-03-02T12:06:08;6.45;;;1.58;;
20914;SDS011;10617;52.032;5.298;2024-03-02T12:20:55;2.60;;;1.02;;
20914;SDS011;10617;52.032;5.298;2024-03-02T12:25:00;3.97;;;0.90;;
20914;SDS011;10617;52.032;5.298;2024-03-02T12:29:02;4.53;;;1.00;;
20914;SDS011;10617;52.032;5.298;2024-03-02T12:33:04;2.28;;;0.85;;
20914;SDS011;10617;52.032;5.298;2024-03-02T12:37:06;3.00;;;0.82;;
20914;SDS011;10617;52.032;5.298;2024-03-02T12:41:08;2.22;;;0.85;;
20914;SDS011;10617;52.032;5.298;2024-03-02T12:45:10;3.88;;;1.08;;
20914;SDS011;10617;52.032;5.298;2024-03-02T12:49:13;2.20;;;0.80;;
20914;SDS011;10617;52.032;5.298;2024-03-02T12:53:19;2.80;;;0.80;;
20914;SDS011;10617;52.032;5.298;2024-03-02T12:57:24;3.42;;;0.90;;
20914;SDS011;10617;52.032;5.298;2024-03-02T13:01:28;3.95;;;1.00;;
20914;SDS011;10617;52.032;5.298;2024-03-02T13:05:30;3.45;;;0.95;;
20914;SDS011;10617;52.032;5.298;2024-03-02T13:09:33;2.75;;;0.90;;
20914;SDS011;10617;52.032;5.298;2024-03-02T13:18:17;2.90;;;0.90;;
20914;SDS011;10617;52.032;5.298;2024-03-02T13:22:19;3.25;;;0.93;;
20914;SDS011;10617;52.032;5.298;2024-03-02T13:26:22;3.22;;;0.80;;
20914;SDS011;10617;52.032;5.298;2024-03-02T13:34:44;2.03;;;0.80;;
20914;SDS011;10617;52.032;5.298;2024-03-02T13:38:46;4.25;;;1.00;;
20914;SDS011;10617;52.032;5.298;2024-03-02T13:42:48;3.85;;;1.10;;
20914;SDS011;10617;52.032;5.298;2024-03-02T13:46:52;2.58;;;0.88;;
20914;SDS011;10617;52.032;5.298;2024-03-02T13:50:53;2.45;;;0.80;;
20914;SDS011;10617;52.032;5.298;2024-03-02T13:54:55;2.97;;;0.90;;
20914;SDS011;10617;52.032;5.298;2024-03-02T13:58:57;2.97;;;0.90;;
20914;SDS011;10617;52.032;5.298;2024-03-02T14:02:59;2.83;;;0.88;;
20914;SDS011;10617;52.032;5.298;2024-03-02T14:07:01;3.47;;;1.00;;
20914;SDS011;10617;52.032;5.298;2024-03-02T14:11:04;3.70;;;1.10;;
20914;SDS011;10617;52.032;5.298;2024-03-02T14:15:06;4.10;;;1.13;;
20914;SDS011;10617;52.032;5.298;2024-03-02T14:19:08;4.10;;;1.48;;
20914;SDS011;10617;52.032;5.298;2024-03-02T14:23:10;4.78;;;1.20;;
20914;SDS011;10617;52.032;5.298;2024-03-02T14:27:12;2.50;;;1.00;;
20914;SDS011;10617;52.032;5.298;2024-03-02T14:31:32;3.72;;;1.20;;
20914;SDS011;10617;52.032;5.298;2024-03-02T14:35:34;3.28;;;1.00;;
20914;SDS011;10617;52.032;5.298;2024-03-02T14:39:36;2.38;;;0.85;;
20914;SDS011;10617;52.032;5.298;2024-03-02T14:43:38;4.18;;;1.00;;
20914;SDS011;10617;52.032;5.298;2024-03-02T14:47:41;2.55;;;1.10;;
20914;SDS011;10617;52.032;5.298;2024-03-02T14:51:43;5.20;;;1.10;;
20914;SDS011;10617;52.032;5.298;2024-03-02T14:55:45;1.77;;;0.80;;
20914;SDS011;10617;52.032;5.298;2024-03-02T14:59:47;2.58;;;0.90;;
20914;SDS011;10617;52.032;5.298;2024-03-02T15:03:49;2.92;;;0.90;;
20914;SDS011;10617;52.032;5.298;2024-03-02T15:07:51;2.97;;;0.90;;
20914;SDS011;10617;52.032;5.298;2024-03-02T15:11:53;3.33;;;1.00;;
20914;SDS011;10617;52.032;5.298;2024-03-02T15:15:55;2.58;;;0.90;;
20914;SDS011;10617;52.032;5.298;2024-03-02T15:19:57;4.13;;;1.10;;
20914;SDS011;10617;52.032;5.298;2024-03-02T15:23:59;2.70;;;0.95;;
20914;SDS011;10617;52.032;5.298;2024-03-02T15:28:01;4.68;;;1.20;;
20914;SDS011;10617;52.032;5.298;2024-03-02T15:32:03;3.72;;;1.13;;
20914;SDS011;10617;52.032;5.298;2024-03-02T15:36:08;3.67;;;1.10;;
20914;SDS011;10617;52.032;5.298;2024-03-02T15:40:10;3.10;;;0.93;;
20914;SDS011;10617;52.032;5.298;2024-03-02T15:44:12;3.30;;;1.15;;
20914;SDS011;10617;52.032;5.298;2024-03-02T15:48:14;2.25;;;0.93;;
20914;SDS011;10617;52.032;5.298;2024-03-02T15:52:16;2.85;;;0.90;;
20914;SDS011;10617;52.032;5.298;2024-03-02T15:56:20;1.58;;;0.73;;
20914;SDS011;10617;52.032;5.298;2024-03-02T16:00:22;4.55;;;1.00;;
20914;SDS011;10617;52.032;5.298;2024-03-02T16:04:23;2.47;;;0.80;;
20914;SDS011;10617;52.032;5.298;2024-03-02T16:08:25;2.63;;;0.82;;
20914;SDS011;10617;52.032;5.298;2024-03-02T16:12:27;1.63;;;0.82;;
20914;SDS011;10617;52.032;5.298;2024-03-02T16:16:29;2.35;;;1.00;;
20914;SDS011;10617;52.032;5.298;2024-03-02T16:20:31;3.10;;;0.90;;
20914;SDS011;10617;52.032;5.298;2024-03-02T16:24:33;3.30;;;1.10;;
20914;SDS011;10617;52.032;5.298;2024-03-02T16:28:34;4.40;;;1.05;;
20914;SDS011;10617;52.032;5.298;2024-03-02T16:32:36;3.53;;;1.20;;
20914;SDS011;10617;52.032;5.298;2024-03-02T16:36:38;3.72;;;1.00;;
20914;SDS011;10617;52.032;5.298;2024-03-02T16:40:42;2.67;;;0.82;;
20914;SDS011;10617;52.032;5.298;2024-03-02T16:44:44;4.53;;;0.93;;
20914;SDS011;10617;52.032;5.298;2024-03-02T16:48:46;4.28;;;1.10;;
20914;SDS011;10617;52.032;5.298;2024-03-02T16:52:48;2.60;;;1.00;;
20914;SDS011;10617;52.032;5.298;2024-03-02T16:56:50;4.30;;;1.10;;
20914;SDS011;10617;52.032;5.298;2024-03-02T17:00:52;4.60;;;1.20;;
20914;SDS011;10617;52.032;5.298;2024-03-02T17:04:54;3.05;;;1.08;;
20914;SDS011;10617;52.032;5.298;2024-03-02T17:08:56;4.05;;;1.30;;
20914;SDS011;10617;52.032;5.298;2024-03-02T17:12:58;3.50;;;1.30;;
20914;SDS011;10617;52.032;5.298;2024-03-02T17:22:23;2.92;;;1.25;;
20914;SDS011;10617;52.032;5.298;2024-03-02T17:26:26;3.00;;;1.10;;
20914;SDS011;10617;52.032;5.298;2024-03-02T17:30:28;3.72;;;1.20;;
20914;SDS011;10617;52.032;5.298;2024-03-02T17:34:30;3.13;;;1.17;;
20914;SDS011;10617;52.032;5.298;2024-03-02T17:38:32;3.05;;;1.10;;
20914;SDS011;10617;52.032;5.298;2024-03-02T17:42:33;2.10;;;1.00;;
20914;SDS011;10617;52.032;5.298;2024-03-02T17:46:35;2.85;;;1.25;;
20914;SDS011;10617;52.032;5.298;2024-03-02T17:50:37;2.40;;;1.15;;
20914;SDS011;10617;52.032;5.298;2024-03-02T17:54:39;3.90;;;1.20;;
20914;SDS011;10617;52.032;5.298;2024-03-02T17:58:41;3.00;;;1.13;;
20914;SDS011;10617;52.032;5.298;2024-03-02T18:02:43;5.93;;;1.58;;
20914;SDS011;10617;52.032;5.298;2024-03-02T18:06:45;3.22;;;1.30;;
20914;SDS011;10617;52.032;5.298;2024-03-02T18:10:47;2.78;;;1.20;;
20914;SDS011;10617;52.032;5.298;2024-03-02T18:14:49;3.42;;;1.30;;
20914;SDS011;10617;52.032;5.298;2024-03-02T18:18:50;4.38;;;1.30;;
20914;SDS011;10617;52.032;5.298;2024-03-02T18:22:52;5.00;;;1.70;;
20914;SDS011;10617;52.032;5.298;2024-03-02T18:26:57;4.03;;;1.33;;
20914;SDS011;10617;52.032;5.298;2024-03-02T18:31:00;2.63;;;1.25;;
20914;SDS011;10617;52.032;5.298;2024-03-02T18:35:02;3.53;;;1.58;;
20914;SDS011;10617;52.032;5.298;2024-03-02T18:39:05;3.70;;;1.40;;
20914;SDS011;10617;52.032;5.298;2024-03-02T18:43:07;4.68;;;1.48;;
20914;SDS011;10617;52.032;5.298;2024-03-02T18:47:09;3.55;;;1.50;;
20914;SDS011;10617;52.032;5.298;2024-03-02T18:51:12;3.10;;;1.45;;
20914;SDS011;10617;52.032;5.298;2024-03-02T18:55:14;3.80;;;1.40;;
20914;SDS011;10617;52.032;5.298;2024-03-02T18:59:16;3.45;;;1.55;;
20914;SDS011;10617;52.032;5.298;2024-03-02T19:03:18;4.05;;;1.58;;
20914;SDS011;10617;52.032;5.298;2024-03-02T19:07:20;2.67;;;1.30;;
20914;SDS011;10617;52.032;5.298;2024-03-02T19:11:22;4.35;;;1.80;;
20914;SDS011;10617;52.032;5.298;2024-03-02T19:15:24;3.30;;;1.52;;
20914;SDS011;10617;52.032;5.298;2024-03-02T19:19:25;3.00;;;1.40;;
20914;SDS011;10617;52.032;5.298;2024-03-02T19:23:27;5.03;;;1.67;;
20914;SDS011;10617;52.032;5.298;2024-03-02T19:27:39;4.18;;;1.60;;
20914;SDS011;10617;52.032;5.298;2024-03-02T19:31:41;2.83;;;1.33;;
20914;SDS011;10617;52.032;5.298;2024-03-02T19:35:43;3.72;;;1.70;;
20914;SDS011;10617;52.032;5.298;2024-03-02T19:39:45;5.38;;;1.92;;
20914;SDS011;10617;52.032;5.298;2024-03-02T19:43:47;4.72;;;1.60;;
20914;SDS011;10617;52.032;5.298;2024-03-02T19:47:49;4.18;;;2.08;;
20914;SDS011;10617;52.032;5.298;2024-03-02T19:51:50;4.65;;;1.70;;
20914;SDS011;10617;52.032;5.298;2024-03-02T19:55:53;3.63;;;1.70;;
20914;SDS011;10617;52.032;5.298;2024-03-02T19:59:55;5.13;;;2.28;;
20914;SDS011;10617;52.032;5.298;2024-03-02T20:03:57;4.65;;;2.00;;
20914;SDS011;10617;52.032;5.298;2024-03-02T20:07:59;4.20;;;1.90;;
20914;SDS011;10617;52.032;5.298;2024-03-02T20:12:01;4.72;;;1.98;;
20914;SDS011;10617;52.032;5.298;2024-03-02T20:16:07;4.82;;;1.80;;
20914;SDS011;10617;52.032;5.298;2024-03-02T20:20:12;5.28;;;2.17;;
20914;SDS011;10617;52.032;5.298;2024-03-02T20:24:14;4.72;;;2.03;;
20914;SDS011;10617;52.032;5.298;2024-03-02T20:28:16;4.35;;;2.30;;
20914;SDS011;10617;52.032;5.298;2024-03-02T20:32:18;5.28;;;2.40;;
20914;SDS011;10617;52.032;5.298;2024-03-02T20:36:21;3.70;;;2.05;;
20914;SDS011;10617;52.032;5.298;2024-03-02T20:40:23;4.57;;;2.30;;
20914;SDS011;10617;52.032;5.298;2024-03-02T20:44:25;7.15;;;2.40;;
20914;SDS011;10617;52.032;5.298;2024-03-02T20:48:27;3.92;;;2.05;;
20914;SDS011;10617;52.032;5.298;2024-03-02T20:52:31;4.60;;;2.13;;
20914;SDS011;10617;52.032;5.298;2024-03-02T20:56:32;4.40;;;2.40;;
20914;SDS011;10617;52.032;5.298;2024-03-02T21:00:37;5.43;;;2.47;;
20914;SDS011;10617;52.032;5.298;2024-03-02T21:04:39;5.05;;;2.50;;
20914;SDS011;10617;52.032;5.298;2024-03-02T21:08:43;4.82;;;2.30;;
20914;SDS011;10617;52.032;5.298;2024-03-02T21:12:45;5.90;;;2.35;;
20914;SDS011;10617;52.032;5.298;2024-03-02T21:16:48;6.70;;;2.60;;
20914;SDS011;10617;52.032;5.298;2024-03-02T21:20:51;5.20;;;2.47;;
20914;SDS011;10617;52.032;5.298;2024-03-02T21:24:53;4.90;;;2.78;;
20914;SDS011;10617;52.032;5.298;2024-03-02T21:29:01;4.82;;;2.47;;
20914;SDS011;10617;52.032;5.298;2024-03-02T21:33:05;4.93;;;2.47;;
20914;SDS011;10617;52.032;5.298;2024-03-02T21:37:07;5.35;;;2.50;;
20914;SDS011;10617;52.032;5.298;2024-03-02T21:41:10;4.47;;;2.35;;
20914;SDS011;10617;52.032;5.298;2024-03-02T21:45:12;4.43;;;2.30;;
20914;SDS011;10617;52.032;5.298;2024-03-02T21:49:13;5.35;;;2.80;;
20914;SDS011;10617;52.032;5.298;2024-03-02T21:53:15;4.90;;;2.35;;
20914;SDS011;10617;52.032;5.298;2024-03-02T21:57:17;4.57;;;2.17;;
20914;SDS011;10617;52.032;5.298;2024-03-02T22:01:21;5.32;;;2.20;;
20914;SDS011;10617;52.032;5.298;2024-03-02T22:05:23;4.38;;;2.20;;
20914;SDS011;10617;52.032;5.298;2024-03-02T22:09:25;4.15;;;1.90;;
20914;SDS011;10617;52.032;5.298;2024-03-02T22:13:26;6.50;;;2.55;;
20914;SDS011;10617;52.032;5.298;2024-03-02T22:17:28;4.60;;;2.13;;
20914;SDS011;10617;52.032;5.298;2024-03-02T22:21:30;4.30;;;2.25;;
20914;SDS011;10617;52.032;5.298;2024-03-02T22:25:32;4.47;;;2.10;;
20914;SDS011;10617;52.032;5.298;2024-03-02T22:29:34;6.05;;;1.83;;
20914;SDS011;10617;52.032;5.298;2024-03-02T22:33:36;5.13;;;2.28;;
20914;SDS011;10617;52.032;5.298;2024-03-02T22:37:38;4.57;;;2.10;;
20914;SDS011;10617;52.032;5.298;2024-03-02T22:41:40;4.20;;;2.10;;
20914;SDS011;10617;52.032;5.298;2024-03-02T22:45:42;4.65;;;1.95;;
20914;SDS011;10617;52.032;5.298;2024-03-02T22:49:44;3.92;;;1.80;;
20914;SDS011;10617;52.032;5.298;2024-03-02T22:53:46;4.10;;;2.17;;
20914;SDS011;10617;52.032;5.298;2024-03-02T22:57:48;4.03;;;1.90;;
20914;SDS011;10617;52.032;5.298;2024-03-02T23:01:50;4.38;;;1.98;;
20914;SDS011;10617;52.032;5.298;2024-03-02T23:05:52;4.35;;;2.20;;
20914;SDS011;10617;52.032;5.298;2024-03-02T23:09:54;4.60;;;2.20;;
20914;SDS011;10617;52.032;5.298;2024-03-02T23:14:03;5.72;;;2.25;;
20914;SDS011;10617;52.032;5.298;2024-03-02T23:18:06;5.18;;;2.00;;
20914;SDS011;10617;52.032;5.298;2024-03-02T23:22:08;6.10;;;2.92;;
20914;SDS011;10617;52.032;5.298;2024-03-02T23:26:11;3.75;;;1.80;;
20914;SDS011;10617;52.032;5.298;2024-03-02T23:30:13;4.95;;;2.08;;
20914;SDS011;10617;52.032;5.298;2024-03-02T23:34:15;4.45;;;2.30;;
20914;SDS011;10617;52.032;5.298;2024-03-02T23:38:17;5.30;;;2.45;;
20914;SDS011;10617;52.032;5.298;2024-03-02T23:42:18;4.65;;;2.25;;
20914;SDS011;10617;52.032;5.298;2024-03-02T23:46:20;6.57;;;2.58;;
20914;SDS011;10617;52.032;5.298;2024-03-02T23:50:23;4.93;;;2.60;;
20914;SDS011;10617;52.032;5.298;2024-03-02T23:54:24;4.65;;;2.50;;
20914;SDS011;10617;52.032;5.298;2024-03-02T23:58:26;5.20;;;2.80;;
